Accueil
METAR-TAF:

METAR-TAF

Aéroports :

Aéroport de Bastia-Poretta

Bastia, France

latitude: 42-33N, longitude: 009-29E, altitude: 8 m

Observation

Le bulletin a été fait il y a 37 minutes, à 16:30 UTC
Vent 3 kt de est
Température 18°C
Humidité 49%
Pression 1020 hPa
Visibilité 10 km ou plus
pas de nuages en-dessous de 1500 mètres et pas de cumulonimbus.

METAR: LFKB 241630Z AUTO 08003KT CAVOK 18/07 Q1020 NOSIG

Heure: 18:07 (17:07 UTC)

Prévision

Le bulletin a été fait il y a 3 heures et 7 minutes, à 14:00 UTC
Prévision valable du 24 à 15 UTC au 25 à 15 UTC
Vent 6 kt de sud-est
Visibilité 10 km ou plus
pas de nuages en-dessous de 1500 mètres et pas de cumulonimbus.
Evoluant progressivement
du 24 à 18 UTC au 24 à 21 UTC
Vent 4 kt de ouest/sud-ouest
Evoluant progressivement
du 25 à 08 UTC au 25 à 09 UTC
Vent 10 kt de est/sud-est

TAF: LFKB 241400Z 2415/2515 14006KT CAVOK TX18/2512Z TN08/2503Z BECMG 2418/2421 24004KT BECMG 2508/2509 12010KT

Observations et prévisions météorologiques de plus de 4000 aéroports (messages METAR et TAF).

Les stations disponibles sont représentées par des disques jaunes et rouges sur la carte.

Passer la souris dessus pour voir le nom de la station.

Cliquer dessus pour voir les observations et prévisions météorologiques.

Pour changer de carte: cliquez sur les boutons verts avec une croix noire pour zoomer, sur le bouton vert avec un tiret pour effectuer un zoom arrière, ou sur les flèches vertes pour les cartes adjacentes.


METAR-TAF: